Time;durP1;ratioP1;P1;durP2;ratioP2;P2;SDS_P1;SDS_P2;PMS_P1;PMS_P2;Temp;Humidity;BMP_temperature;BMP_pressure;BME280_temperature;BME280_humidity;BME280_pressure;Samples;Min_cycle;Max_cycle;Signal;HPM_P1;HPM_P2
2022/07/19 00:02:05;;;;;;;3.13;1.98;;;23.60;49.70;;;;;;4999565;28;20061;-49
2022/07/19 00:04:34;;;;;;;2.47;2.28;;;23.60;49.80;;;;;;4996118;28;20045;-47
2022/07/19 00:07:08;;;;;;;2.55;2.30;;;23.50;49.50;;;;;;5003836;28;20232;-46
2022/07/19 00:09:35;;;;;;;5.03;2.95;;;23.50;49.60;;;;;;5004832;28;20064;-50
2022/07/19 00:12:04;;;;;;;2.08;1.88;;;23.50;49.70;;;;;;5009702;28;20042;-48
2022/07/19 00:14:38;;;;;;;2.15;1.98;;;23.40;49.70;;;;;;4994230;28;20038;-46
2022/07/19 00:17:05;;;;;;;2.72;2.42;;;23.40;49.80;;;;;;5007571;28;20462;-45
2022/07/19 00:19:35;;;;;;;2.28;2.08;;;23.40;50.00;;;;;;5010370;28;20045;-46
2022/07/19 00:22:01;;;;;;;2.45;2.25;;;23.30;49.90;;;;;;5000911;28;20038;-47
2022/07/19 00:24:28;;;;;;;2.30;2.20;;;23.30;50.10;;;;;;4994949;28;20114;-47
2022/07/19 00:26:55;;;;;;;2.15;1.95;;;23.30;50.10;;;;;;5005665;28;20513;-45
2022/07/19 00:29:27;;;;;;;2.85;2.38;;;23.20;50.20;;;;;;5008943;28;20549;-47
2022/07/19 00:31:56;;;;;;;4.55;2.53;;;23.20;50.20;;;;;;4987747;28;20038;-47
2022/07/19 00:34:22;;;;;;;2.40;2.03;;;23.20;50.30;;;;;;5002784;28;20108;-47
2022/07/19 00:36:52;;;;;;;4.28;2.33;;;23.20;50.30;;;;;;5008818;28;20124;-47
2022/07/19 00:39:23;;;;;;;2.17;1.98;;;23.10;50.40;;;;;;5009497;28;20033;-48
2022/07/19 00:41:51;;;;;;;2.33;2.20;;;23.10;50.30;;;;;;4978744;28;20039;-47
2022/07/19 00:44:22;;;;;;;2.03;1.90;;;23.10;50.40;;;;;;4996427;28;20069;-47
2022/07/19 00:46:49;;;;;;;2.58;2.38;;;23.00;50.80;;;;;;5009114;28;20096;-48
2022/07/19 00:49:27;;;;;;;2.80;2.38;;;23.00;50.80;;;;;;5010035;28;20502;-48
2022/07/19 00:51:59;;;;;;;3.13;2.40;;;22.90;50.70;;;;;;4988934;28;20096;-47
2022/07/19 00:54:31;;;;;;;2.58;2.38;;;22.90;51.00;;;;;;5002809;28;20081;-49
2022/07/19 00:57:00;;;;;;;2.63;2.05;;;22.90;51.00;;;;;;5008932;28;20050;-46
2022/07/19 00:59:30;;;;;;;2.40;2.20;;;22.90;51.10;;;;;;5003621;28;20053;-47
2022/07/19 01:02:02;;;;;;;3.70;2.60;;;22.80;51.00;;;;;;4992149;28;20137;-50
2022/07/19 01:04:32;;;;;;;4.57;2.72;;;22.80;51.10;;;;;;5010059;28;20093;-47
2022/07/19 01:06:59;;;;;;;2.72;2.40;;;22.80;51.10;;;;;;5009120;28;20089;-49
2022/07/19 01:09:28;;;;;;;2.97;2.20;;;22.80;51.20;;;;;;4984636;28;20037;-46
2022/07/19 01:12:03;;;;;;;2.47;2.10;;;22.70;51.20;;;;;;5008399;28;20554;-48
2022/07/19 01:14:35;;;;;;;2.53;2.30;;;22.70;51.20;;;;;;5009976;28;20497;-47
2022/07/19 01:17:06;;;;;;;2.53;2.33;;;22.60;51.20;;;;;;4994242;28;20530;-46
2022/07/19 01:19:34;;;;;;;2.90;2.22;;;22.70;51.30;;;;;;4998259;28;20034;-50
2022/07/19 01:22:01;;;;;;;4.93;2.50;;;22.60;51.20;;;;;;5001660;28;20096;-50
2022/07/19 01:24:27;;;;;;;4.78;2.70;;;22.60;51.30;;;;;;4994243;28;20903;-49
2022/07/19 01:26:54;;;;;;;2.72;2.42;;;22.60;51.40;;;;;;5005451;28;20072;-46
2022/07/19 01:29:23;;;;;;;2.72;2.47;;;22.50;51.30;;;;;;5009890;28;20042;-50
2022/07/19 01:31:51;;;;;;;2.50;2.20;;;22.50;51.40;;;;;;4994959;28;20035;-50
2022/07/19 01:34:23;;;;;;;2.47;2.00;;;22.50;51.40;;;;;;4985564;28;20406;-50
2022/07/19 01:36:56;;;;;;;3.33;2.13;;;22.50;51.40;;;;;;5008019;28;20658;-53
2022/07/19 01:39:26;;;;;;;2.42;2.22;;;22.40;51.80;;;;;;4994632;28;20117;-50
2022/07/19 01:41:55;;;;;;;2.90;2.70;;;22.40;51.50;;;;;;5004247;28;20523;-50
2022/07/19 01:44:21;;;;;;;2.63;2.15;;;22.40;51.60;;;;;;5008960;28;20470;-50
2022/07/19 01:46:50;;;;;;;2.92;2.60;;;22.30;51.60;;;;;;4996922;28;20035;-50
2022/07/19 01:49:21;;;;;;;2.47;2.28;;;22.30;51.80;;;;;;4994728;28;20092;-49
2022/07/19 01:51:50;;;;;;;3.47;2.40;;;22.30;51.70;;;;;;5011988;28;20073;-49
2022/07/19 01:54:17;;;;;;;2.35;2.15;;;22.30;51.80;;;;;;5013421;28;20116;-50
2022/07/19 01:56:43;;;;;;;4.47;2.38;;;22.20;51.90;;;;;;4999085;28;20042;-49
2022/07/19 01:59:16;;;;;;;2.55;2.35;;;22.20;51.90;;;;;;4996859;28;20038;-50
2022/07/19 02:01:45;;;;;;;3.97;2.72;;;22.10;51.90;;;;;;5012368;28;20042;-50
2022/07/19 02:04:12;;;;;;;3.10;2.60;;;22.10;52.00;;;;;;5011509;28;20045;-50
2022/07/19 02:06:39;;;;;;;2.88;2.67;;;22.10;52.00;;;;;;4994794;28;20084;-48
2022/07/19 02:09:08;;;;;;;3.10;2.38;;;22.00;52.00;;;;;;5003780;28;20049;-49
2022/07/19 02:11:35;;;;;;;3.00;2.70;;;22.00;52.80;;;;;;5012056;28;20053;-49
2022/07/19 02:14:04;;;;;;;2.78;2.58;;;22.00;52.00;;;;;;5004868;28;20042;-50
2022/07/19 02:16:30;;;;;;;3.28;2.58;;;22.00;52.10;;;;;;4993170;28;20041;-50
2022/07/19 02:19:00;;;;;;;2.67;2.47;;;21.90;52.10;;;;;;5010752;28;20049;-48
2022/07/19 02:21:28;;;;;;;2.90;2.60;;;21.90;52.20;;;;;;4991232;28;20097;-49
2022/07/19 02:23:55;;;;;;;2.40;2.20;;;21.90;52.40;;;;;;4987899;28;20086;-46
2022/07/19 02:26:22;;;;;;;3.08;2.78;;;21.80;52.40;;;;;;4991909;28;20041;-46
2022/07/19 02:28:51;;;;;;;2.97;2.38;;;21.80;52.50;;;;;;4985094;28;20034;-45
2022/07/19 02:31:18;;;;;;;3.08;2.58;;;21.80;52.60;;;;;;4983058;28;20165;-49
2022/07/19 02:33:45;;;;;;;3.13;2.78;;;21.80;52.70;;;;;;4987479;28;20129;-50
2022/07/19 02:36:14;;;;;;;3.67;2.33;;;21.70;52.80;;;;;;4994146;28;20042;-50
2022/07/19 02:38:44;;;;;;;3.80;2.53;;;21.70;52.80;;;;;;4989472;28;20558;-46
2022/07/19 02:41:11;;;;;;;5.75;2.65;;;21.70;52.90;;;;;;4981465;28;20145;-50
2022/07/19 02:43:38;;;;;;;3.13;2.50;;;21.60;52.90;;;;;;4986366;28;20038;-48
2022/07/19 02:46:04;;;;;;;3.47;2.67;;;21.60;53.00;;;;;;4991450;28;20073;-47
2022/07/19 02:48:31;;;;;;;2.83;2.58;;;21.60;53.10;;;;;;4984741;28;20047;-46
2022/07/19 02:51:00;;;;;;;5.47;2.58;;;21.60;53.10;;;;;;4981186;28;20046;-48
2022/07/19 02:53:27;;;;;;;2.55;2.35;;;21.50;53.10;;;;;;4987050;28;20049;-46
2022/07/19 02:55:53;;;;;;;2.83;2.53;;;21.50;53.20;;;;;;4988324;28;20070;-46
2022/07/19 02:58:25;;;;;;;4.75;2.22;;;21.50;53.30;;;;;;4990337;28;20042;-48
2022/07/19 03:00:51;;;;;;;2.65;2.47;;;21.40;53.20;;;;;;4977532;28;20615;-48
2022/07/19 03:06:04;;;;;;;3.50;2.53;;;21.50;53.50;;;;;;4990106;28;20123;-46
2022/07/19 03:08:33;;;;;;;4.18;2.78;;;21.30;53.30;;;;;;4980944;28;20046;-46
2022/07/19 03:11:02;;;;;;;2.55;2.35;;;21.30;53.50;;;;;;4985071;28;20117;-50
2022/07/19 03:13:29;;;;;;;3.30;3.00;;;21.30;53.60;;;;;;4992987;28;20034;-48
2022/07/19 03:15:56;;;;;;;2.50;2.30;;;21.20;53.60;;;;;;4988200;28;20122;-50
2022/07/19 03:18:23;;;;;;;2.53;2.33;;;21.30;53.70;;;;;;4984475;28;20135;-50
2022/07/19 03:20:50;;;;;;;2.42;2.22;;;21.20;53.80;;;;;;4981108;28;20046;-49
2022/07/19 03:23:18;;;;;;;3.58;2.22;;;21.20;53.80;;;;;;4993219;28;20523;-47
2022/07/19 03:25:45;;;;;;;2.78;2.47;;;21.10;53.80;;;;;;4987216;28;20039;-50
2022/07/19 03:28:14;;;;;;;4.07;2.72;;;21.10;53.90;;;;;;4981226;28;20507;-50
2022/07/19 03:30:48;;;;;;;2.90;2.60;;;21.10;54.00;;;;;;4983765;28;20511;-49
2022/07/19 03:33:15;;;;;;;4.30;2.40;;;21.10;54.60;;;;;;4985326;28;20096;-50
2022/07/19 03:35:48;;;;;;;3.22;2.65;;;21.10;54.00;;;;;;5011293;28;20045;-49
2022/07/19 03:38:21;;;;;;;3.10;2.83;;;21.10;54.10;;;;;;5005861;28;20085;-49
2022/07/19 03:40:47;;;;;;;2.42;2.22;;;21.00;54.20;;;;;;4988004;28;20046;-45
2022/07/19 03:43:17;;;;;;;2.60;2.40;;;21.00;54.20;;;;;;5010530;28;20121;-50
2022/07/19 03:45:45;;;;;;;4.38;2.58;;;21.00;54.40;;;;;;4988603;28;20607;-49
2022/07/19 03:48:18;;;;;;;2.60;2.40;;;21.00;54.40;;;;;;4990734;28;20072;-50
2022/07/19 03:50:44;;;;;;;2.75;2.47;;;21.00;54.40;;;;;;4987918;28;20097;-47
2022/07/19 03:53:13;;;;;;;2.50;2.30;;;20.90;54.50;;;;;;4988279;28;20073;-46
2022/07/19 03:55:42;;;;;;;2.60;2.25;;;20.90;54.50;;;;;;4979969;28;20046;-47
2022/07/19 03:58:09;;;;;;;2.80;2.60;;;20.90;54.80;;;;;;4981238;28;20439;-48
2022/07/19 04:00:39;;;;;;;3.03;2.67;;;20.90;54.60;;;;;;4988471;28;20041;-49
2022/07/19 04:03:05;;;;;;;3.85;2.63;;;20.90;54.70;;;;;;4988454;28;20108;-47
2022/07/19 04:05:32;;;;;;;4.13;2.55;;;20.90;54.90;;;;;;4985406;28;20122;-50
2022/07/19 04:07:59;;;;;;;4.25;2.03;;;20.80;55.00;;;;;;4984908;28;20109;-47
2022/07/19 04:10:28;;;;;;;3.10;2.80;;;20.90;55.20;;;;;;4995017;28;20042;-46
2022/07/19 04:12:55;;;;;;;8.25;2.53;;;20.80;55.50;;;;;;4983186;28;20054;-52
2022/07/19 04:15:26;;;;;;;2.80;2.50;;;20.80;55.30;;;;;;4980464;28;20038;-47
2022/07/19 04:17:53;;;;;;;7.20;3.40;;;20.80;55.40;;;;;;4981740;28;20414;-45
2022/07/19 04:20:20;;;;;;;5.78;2.85;;;20.80;55.60;;;;;;4982020;28;20050;-47
2022/07/19 04:22:46;;;;;;;6.30;3.15;;;20.80;55.70;;;;;;4983966;28;20073;-48
2022/07/19 04:25:13;;;;;;;5.72;2.50;;;20.80;55.80;;;;;;4979287;28;20125;-48
2022/07/19 04:27:40;;;;;;;3.88;2.60;;;20.80;56.00;;;;;;4983275;28;20042;-46
2022/07/19 04:30:07;;;;;;;2.95;2.65;;;20.80;56.00;;;;;;4984003;28;20042;-47
2022/07/19 04:32:34;;;;;;;3.17;2.70;;;20.90;56.30;;;;;;4982188;28;20089;-48
2022/07/19 04:35:02;;;;;;;2.85;2.65;;;20.90;56.40;;;;;;4982041;28;20546;-49
2022/07/19 04:37:28;;;;;;;3.55;2.70;;;20.90;56.50;;;;;;4983521;28;20042;-47
2022/07/19 04:39:55;;;;;;;4.70;2.55;;;20.90;56.60;;;;;;4983148;28;20050;-49
2022/07/19 04:42:22;;;;;;;3.33;2.78;;;20.90;56.70;;;;;;4981595;28;20098;-48
2022/07/19 04:44:49;;;;;;;2.80;2.60;;;20.90;56.80;;;;;;4978226;28;20526;-48
2022/07/19 04:47:15;;;;;;;3.75;2.50;;;21.00;57.10;;;;;;4982082;28;20050;-48
2022/07/19 04:49:43;;;;;;;7.47;2.88;;;21.00;57.20;;;;;;4989337;28;20494;-50
2022/07/19 04:52:09;;;;;;;5.72;3.00;;;21.10;57.40;;;;;;4997856;28;20050;-50
2022/07/19 04:54:36;;;;;;;2.78;2.58;;;21.10;57.50;;;;;;4989808;28;20043;-51
2022/07/19 04:57:03;;;;;;;3.65;2.70;;;21.00;57.60;;;;;;4988029;28;20043;-50
2022/07/19 04:59:29;;;;;;;3.05;2.72;;;21.10;57.80;;;;;;5010274;28;20046;-52
2022/07/19 05:01:56;;;;;;;2.97;2.78;;;21.10;57.90;;;;;;4997851;28;20101;-52
2022/07/19 05:04:23;;;;;;;2.50;2.30;;;21.20;58.10;;;;;;4992529;28;20052;-49
2022/07/19 05:06:56;;;;;;;11.77;4.88;;;21.20;58.10;;;;;;5002238;28;20434;-52
2022/07/19 05:09:26;;;;;;;3.38;3.00;;;21.20;58.30;;;;;;4994581;28;20380;-51
2022/07/19 05:11:53;;;;;;;4.47;3.10;;;21.30;58.70;;;;;;5002170;28;20053;-46
2022/07/19 05:14:20;;;;;;;3.63;3.00;;;21.40;58.50;;;;;;4985928;28;20030;-51
2022/07/19 05:16:49;;;;;;;4.22;3.17;;;21.40;58.60;;;;;;5004898;28;20655;-51
2022/07/19 05:19:17;;;;;;;4.00;3.20;;;21.50;58.80;;;;;;4995440;28;20048;-50
2022/07/19 05:21:44;;;;;;;5.03;3.45;;;21.50;58.90;;;;;;4997127;28;20034;-51
2022/07/19 05:24:10;;;;;;;5.57;3.55;;;21.60;58.90;;;;;;4995361;28;20053;-47
2022/07/19 05:26:37;;;;;;;5.60;3.50;;;21.60;59.00;;;;;;5006050;28;20380;-46
2022/07/19 05:29:04;;;;;;;7.38;3.30;;;21.70;58.50;;;;;;4989397;28;20074;-51
2022/07/19 05:31:31;;;;;;;6.20;4.35;;;21.70;58.80;;;;;;4981624;28;20105;-50
2022/07/19 05:33:58;;;;;;;7.13;3.72;;;21.80;59.00;;;;;;4996837;28;20040;-48
2022/07/19 05:36:25;;;;;;;6.13;4.05;;;21.80;59.10;;;;;;5011412;28;20691;-47
2022/07/19 05:38:53;;;;;;;7.32;3.35;;;21.90;58.90;;;;;;4996643;28;20083;-50
2022/07/19 05:41:21;;;;;;;5.45;3.55;;;21.90;58.50;;;;;;4989987;28;20042;-47
2022/07/19 05:43:51;;;;;;;7.95;3.42;;;22.00;58.70;;;;;;4991559;28;20038;-46
2022/07/19 05:46:19;;;;;;;6.75;3.13;;;22.30;59.40;;;;;;5010925;28;20072;-51
2022/07/19 05:48:46;;;;;;;5.88;3.20;;;22.20;58.70;;;;;;5011711;28;20614;-44
2022/07/19 05:51:13;;;;;;;7.85;3.75;;;22.20;58.70;;;;;;5000798;28;20047;-49
2022/07/19 05:53:40;;;;;;;6.65;3.08;;;22.30;58.60;;;;;;4999199;28;20557;-46
2022/07/19 05:56:08;;;;;;;8.90;2.97;;;22.40;58.40;;;;;;5010732;28;20046;-49
2022/07/19 05:58:35;;;;;;;7.32;3.47;;;22.50;58.80;;;;;;4995707;28;20569;-45
2022/07/19 06:01:19;;;;;;;7.82;3.75;;;22.50;58.20;;;;;;4984011;28;20715;-46
2022/07/19 06:03:47;;;;;;;8.90;3.60;;;22.60;58.50;;;;;;5009145;28;20052;-49
2022/07/19 06:06:22;;;;;;;9.18;3.60;;;22.70;58.50;;;;;;4971686;28;20419;-46
2022/07/19 06:08:50;;;;;;;8.60;3.67;;;22.70;57.80;;;;;;4983969;28;20093;-49
2022/07/19 06:11:17;;;;;;;7.63;3.60;;;22.80;57.70;;;;;;4998052;28;20050;-51
2022/07/19 06:13:45;;;;;;;13.73;4.28;;;22.90;57.90;;;;;;4997994;28;20050;-47
2022/07/19 06:16:12;;;;;;;13.90;3.25;;;22.90;57.60;;;;;;4992354;28;20662;-49
2022/07/19 06:18:39;;;;;;;7.35;3.47;;;23.10;56.30;;;;;;4997602;28;20046;-51
2022/07/19 06:21:13;;;;;;;12.32;3.80;;;23.10;56.20;;;;;;4995013;28;20046;-47
2022/07/19 06:23:40;;;;;;;9.93;3.70;;;23.20;55.80;;;;;;5011511;28;20034;-51
2022/07/19 06:26:08;;;;;;;9.98;3.47;;;23.20;56.50;;;;;;5010452;28;20092;-51
2022/07/19 06:28:35;;;;;;;12.38;4.13;;;23.40;56.40;;;;;;4996705;28;20418;-47
2022/07/19 06:31:10;;;;;;;14.50;3.95;;;23.50;54.80;;;;;;4999665;28;20050;-49
2022/07/19 06:33:41;;;;;;;14.73;3.97;;;23.50;55.00;;;;;;5010196;28;20049;-49
2022/07/19 06:36:09;;;;;;;20.15;4.60;;;23.50;54.20;;;;;;4995214;28;20419;-47
2022/07/19 06:38:37;;;;;;;9.15;3.60;;;23.70;53.60;;;;;;4987442;28;20056;-49
2022/07/19 06:41:04;;;;;;;15.88;3.92;;;23.80;53.20;;;;;;5000739;28;20053;-49
2022/07/19 06:43:31;;;;;;;13.13;3.25;;;23.80;52.50;;;;;;5009939;28;20038;-47
2022/07/19 06:45:58;;;;;;;7.03;3.33;;;24.00;52.60;;;;;;4982333;28;20514;-50
2022/07/19 06:48:26;;;;;;;6.35;3.28;;;24.10;52.00;;;;;;4988929;28;20041;-50
2022/07/19 06:50:53;;;;;;;14.73;3.78;;;24.10;52.50;;;;;;5009628;28;20045;-50
2022/07/19 06:53:20;;;;;;;9.82;3.33;;;24.20;51.20;;;;;;5011097;28;20503;-50
2022/07/19 06:55:47;;;;;;;6.78;2.97;;;24.30;51.30;;;;;;4991720;28;20641;-50
2022/07/19 06:58:14;;;;;;;9.13;3.45;;;24.40;50.90;;;;;;4987746;28;20038;-49
2022/07/19 07:00:41;;;;;;;5.75;3.33;;;24.50;50.60;;;;;;5000664;28;20034;-51
2022/07/19 07:03:08;;;;;;;10.05;3.10;;;24.60;50.30;;;;;;5010306;28;20540;-51
2022/07/19 07:05:36;;;;;;;9.70;3.05;;;24.70;50.30;;;;;;5000923;28;20042;-51
2022/07/19 07:08:03;;;;;;;9.68;3.30;;;24.90;50.10;;;;;;5004670;28;20116;-48
2022/07/19 07:10:30;;;;;;;11.13;3.53;;;24.90;50.00;;;;;;5008939;28;20410;-46
2022/07/19 07:12:57;;;;;;;9.55;3.38;;;25.00;50.00;;;;;;4999279;28;20042;-51
2022/07/19 07:15:24;;;;;;;11.85;3.55;;;25.20;49.70;;;;;;4985855;28;20109;-49
2022/07/19 07:17:50;;;;;;;10.05;3.83;;;25.20;49.60;;;;;;5002308;28;20481;-53
2022/07/19 07:20:17;;;;;;;15.20;3.95;;;25.30;49.10;;;;;;5009284;28;20089;-46
2022/07/19 07:22:46;;;;;;;10.13;3.63;;;25.40;49.20;;;;;;5003757;28;20077;-49
2022/07/19 07:25:13;;;;;;;11.18;3.67;;;25.60;48.90;;;;;;4995242;28;20054;-47
2022/07/19 07:27:42;;;;;;;8.80;3.20;;;25.60;48.60;;;;;;4998737;28;20125;-47
2022/07/19 07:30:10;;;;;;;7.28;3.22;;;25.70;48.70;;;;;;4970596;28;20121;-45
2022/07/19 07:32:36;;;;;;;11.32;3.13;;;25.80;48.20;;;;;;4976806;28;20098;-50
2022/07/19 07:35:04;;;;;;;9.18;3.78;;;25.90;48.20;;;;;;4986605;28;20510;-45
2022/07/19 07:37:31;;;;;;;6.28;3.20;;;26.00;47.80;;;;;;5004816;28;20046;-47
2022/07/19 07:39:58;;;;;;;8.38;3.03;;;26.10;47.70;;;;;;5009550;28;20499;-48
2022/07/19 07:42:25;;;;;;;8.73;3.33;;;26.20;47.70;;;;;;4978837;28;20058;-52
2022/07/19 07:44:53;;;;;;;12.55;3.83;;;26.30;47.40;;;;;;4990484;28;20045;-52
2022/07/19 07:47:19;;;;;;;9.43;3.35;;;26.40;47.30;;;;;;5001366;28;20095;-53
2022/07/19 07:49:46;;;;;;;10.35;3.00;;;26.50;47.40;;;;;;5009317;28;20048;-49
2022/07/19 07:52:13;;;;;;;14.25;3.65;;;26.60;46.90;;;;;;5000607;28;20043;-45
2022/07/19 07:54:42;;;;;;;5.47;3.22;;;26.70;46.60;;;;;;4991581;28;20566;-49
2022/07/19 07:57:29;;;;;;;10.80;2.75;;;26.80;46.90;;;;;;4991516;28;20150;-47
2022/07/19 07:59:55;;;;;;;9.45;3.05;;;26.90;46.50;;;;;;5003664;28;20026;-48
2022/07/19 08:02:22;;;;;;;7.55;3.22;;;27.00;46.00;;;;;;4996512;28;20391;-48
2022/07/19 08:04:49;;;;;;;10.15;3.38;;;27.00;45.80;;;;;;4989215;28;20138;-46
2022/07/19 08:07:16;;;;;;;13.18;3.17;;;27.10;45.70;;;;;;4987685;28;20034;-46
2022/07/19 08:09:43;;;;;;;10.43;3.25;;;27.20;45.70;;;;;;5006734;28;20104;-49
2022/07/19 08:12:09;;;;;;;8.57;3.17;;;27.30;45.20;;;;;;4994748;28;20143;-46
2022/07/19 08:14:36;;;;;;;9.13;2.80;;;27.50;45.40;;;;;;4996218;28;20128;-48
2022/07/19 08:17:03;;;;;;;11.98;4.32;;;27.50;45.10;;;;;;5001580;28;20060;-47
2022/07/19 08:19:30;;;;;;;7.95;3.20;;;27.60;44.80;;;;;;4989271;28;20049;-46
2022/07/19 08:21:56;;;;;;;7.97;3.28;;;27.80;44.60;;;;;;4982927;28;20643;-47
2022/07/19 08:24:23;;;;;;;6.18;3.10;;;27.80;44.40;;;;;;4990514;28;20042;-50
2022/07/19 08:26:50;;;;;;;11.63;3.58;;;27.90;44.20;;;;;;5007633;28;20125;-47
2022/07/19 08:29:16;;;;;;;10.00;3.33;;;28.00;43.80;;;;;;4987409;28;20117;-51
2022/07/19 08:31:43;;;;;;;5.82;3.50;;;28.10;43.70;;;;;;4989011;28;20104;-49
2022/07/19 08:34:10;;;;;;;12.82;4.75;;;28.20;43.40;;;;;;5008834;28;20497;-50
2022/07/19 08:36:37;;;;;;;7.03;3.03;;;28.30;43.10;;;;;;5009048;28;20038;-49
2022/07/19 08:39:04;;;;;;;8.70;3.40;;;28.40;42.50;;;;;;4991699;28;20097;-49
2022/07/19 08:41:32;;;;;;;7.22;3.05;;;28.50;42.60;;;;;;5005337;28;20569;-49
2022/07/19 08:44:02;;;;;;;6.72;2.55;;;28.60;42.60;;;;;;4994009;28;20046;-50
2022/07/19 08:46:29;;;;;;;6.55;3.20;;;28.60;42.30;;;;;;4983271;28;20384;-47
2022/07/19 08:48:57;;;;;;;4.55;2.67;;;28.80;42.20;;;;;;4988511;28;20112;-47
2022/07/19 08:51:25;;;;;;;10.70;3.38;;;28.80;42.00;;;;;;4987762;28;20065;-49
2022/07/19 08:53:55;;;;;;;8.50;3.35;;;29.00;42.40;;;;;;4991900;28;20042;-51
2022/07/19 08:59:07;;;;;;;9.27;3.10;;;29.20;41.60;;;;;;4999654;28;20518;-48
2022/07/19 09:01:36;;;;;;;6.78;2.50;;;29.30;41.40;;;;;;4992040;28;20030;-47
2022/07/19 09:04:15;;;;;;;3.58;2.55;;;29.40;41.00;;;;;;5010524;28;20058;-48
2022/07/19 09:06:44;;;;;;;5.72;3.38;;;29.40;40.80;;;;;;4998531;28;20054;-47
2022/07/19 09:09:12;;;;;;;10.07;3.25;;;29.50;41.00;;;;;;4993977;28;20042;-47
2022/07/19 09:11:50;;;;;;;8.35;2.72;;;29.60;40.10;;;;;;4999393;28;20037;-49
2022/07/19 09:14:32;;;;;;;8.40;3.00;;;29.70;39.80;;;;;;5009284;28;20042;-50
2022/07/19 09:17:03;;;;;;;18.85;3.95;;;29.80;39.40;;;;;;5012840;28;20050;-47
2022/07/19 09:19:38;;;;;;;6.80;2.67;;;29.90;38.80;;;;;;5000284;28;20515;-49
2022/07/19 09:22:12;;;;;;;8.63;3.15;;;30.00;39.00;;;;;;4990116;28;20049;-48
2022/07/19 09:24:45;;;;;;;7.75;3.08;;;30.10;38.10;;;;;;4986944;28;20511;-47
2022/07/19 09:27:17;;;;;;;5.13;3.17;;;30.20;39.20;;;;;;4996127;28;20046;-51
2022/07/19 09:29:51;;;;;;;5.32;2.63;;;30.30;38.60;;;;;;5002188;28;20521;-48
2022/07/19 09:32:20;;;;;;;4.13;3.40;;;30.40;37.90;;;;;;4985830;28;20089;-47
2022/07/19 09:34:56;;;;;;;7.40;2.53;;;30.50;37.50;;;;;;4984547;28;20046;-50
2022/07/19 09:37:27;;;;;;;7.82;2.72;;;30.50;37.50;;;;;;4985476;28;20518;-51
2022/07/19 09:40:17;;;;;;;5.35;2.85;;;30.70;38.10;;;;;;4989844;28;20042;-50
2022/07/19 09:42:44;;;;;;;9.77;3.40;;;30.80;37.00;;;;;;4979545;28;20101;-51
2022/07/19 09:45:13;;;;;;;5.85;2.80;;;30.80;37.60;;;;;;4996749;28;20043;-49
2022/07/19 09:47:44;;;;;;;6.47;3.30;;;30.90;36.50;;;;;;4993641;28;20046;-51
2022/07/19 09:50:21;;;;;;;4.20;2.80;;;31.00;36.20;;;;;;4989637;28;20050;-52
2022/07/19 09:52:50;;;;;;;3.28;2.15;;;31.10;36.40;;;;;;4982108;28;20054;-49
2022/07/19 09:55:18;;;;;;;4.32;2.45;;;31.20;36.60;;;;;;4986159;28;20038;-48
2022/07/19 09:57:50;;;;;;;6.93;2.50;;;31.30;35.60;;;;;;5004277;28;20050;-46
2022/07/19 10:00:22;;;;;;;5.88;2.30;;;31.50;35.40;;;;;;5011413;28;20053;-48
2022/07/19 10:02:58;;;;;;;5.57;2.50;;;31.50;35.40;;;;;;4994023;28;20093;-48
2022/07/19 10:05:27;;;;;;;5.80;2.65;;;31.60;35.50;;;;;;4988698;28;20042;-47
2022/07/19 10:07:55;;;;;;;2.25;2.05;;;31.70;35.30;;;;;;5010066;28;20399;-49
2022/07/19 10:10:25;;;;;;;3.67;2.60;;;31.80;35.10;;;;;;4973184;28;20093;-48
2022/07/19 10:12:54;;;;;;;2.85;1.95;;;31.90;35.50;;;;;;4981798;28;20046;-47
2022/07/19 10:15:21;;;;;;;4.05;2.40;;;32.00;35.10;;;;;;4990436;28;20046;-49
2022/07/19 10:18:04;;;;;;;5.95;2.10;;;32.00;34.90;;;;;;5009673;28;20096;-51
2022/07/19 10:20:31;;;;;;;4.03;3.05;;;32.10;34.30;;;;;;4972979;28;20451;-49
2022/07/19 10:23:03;;;;;;;4.45;1.90;;;32.20;34.50;;;;;;4982864;28;20030;-50
2022/07/19 10:25:41;;;;;;;5.60;2.20;;;32.20;33.90;;;;;;5000625;28;20415;-48
2022/07/19 10:28:28;;;;;;;8.80;3.13;;;32.40;34.30;;;;;;5010538;28;20331;-50
2022/07/19 10:31:35;;;;;;;4.82;2.25;;;32.50;34.10;;;;;;4990773;28;20073;-51
2022/07/19 10:34:10;;;;;;;3.10;2.13;;;32.60;33.20;;;;;;4992326;28;20050;-50
2022/07/19 10:36:44;;;;;;;6.22;2.53;;;32.60;32.50;;;;;;5003466;28;20034;-47
2022/07/19 10:39:33;;;;;;;2.90;2.38;;;32.70;32.60;;;;;;4995583;28;20049;-51
2022/07/19 10:42:11;;;;;;;18.95;2.60;;;32.80;32.80;;;;;;4983712;28;20053;-49
2022/07/19 10:44:56;;;;;;;5.10;2.10;;;33.00;33.00;;;;;;4999662;28;20096;-47
2022/07/19 10:47:23;;;;;;;2.83;2.20;;;33.10;32.70;;;;;;5003214;28;20045;-50
2022/07/19 10:49:49;;;;;;;5.35;3.10;;;33.10;32.10;;;;;;4992133;28;20117;-49
2022/07/19 10:52:28;;;;;;;3.97;2.28;;;33.20;32.30;;;;;;4987237;28;20037;-50
2022/07/19 10:55:28;;;;;;;3.78;2.35;;;33.40;31.60;;;;;;4977574;28;20196;-48
2022/07/19 10:57:58;;;;;;;4.43;2.13;;;33.50;32.20;;;;;;4982373;28;20585;-48
2022/07/19 11:00:27;;;;;;;5.50;2.45;;;33.50;31.70;;;;;;4978429;28;20081;-50
2022/07/19 11:03:25;;;;;;;4.25;2.40;;;33.60;31.40;;;;;;4981640;28;20102;-48
2022/07/19 11:05:59;;;;;;;5.18;2.20;;;33.60;31.10;;;;;;4983271;28;20157;-50
2022/07/19 11:08:33;;;;;;;4.15;2.45;;;33.90;30.80;;;;;;4984413;28;20096;-48
2022/07/19 11:11:26;;;;;;;5.03;2.13;;;33.90;30.40;;;;;;4984084;28;20648;-50
2022/07/19 11:13:57;;;;;;;5.22;2.08;;;34.10;30.90;;;;;;5006507;28;20065;-50
2022/07/19 11:16:26;;;;;;;3.10;2.10;;;34.10;30.50;;;;;;4974398;28;20046;-47
2022/07/19 11:19:03;;;;;;;3.33;1.85;;;34.20;30.30;;;;;;4980525;28;20577;-48
2022/07/19 11:21:36;;;;;;;7.30;1.58;;;34.30;29.60;;;;;;4994264;28;20034;-51
2022/07/19 11:24:06;;;;;;;6.30;1.98;;;34.50;29.40;;;;;;5012014;28;20103;-48
2022/07/19 11:26:39;;;;;;;2.42;1.60;;;34.60;28.70;;;;;;5006585;28;20050;-51
2022/07/19 11:29:13;;;;;;;3.20;1.73;;;34.70;29.00;;;;;;5000853;28;20511;-50
2022/07/19 11:31:47;;;;;;;7.15;1.83;;;34.80;28.80;;;;;;5010909;28;20117;-47
2022/07/19 11:34:14;;;;;;;4.13;1.67;;;34.90;28.50;;;;;;5011056;28;20502;-51
2022/07/19 11:36:41;;;;;;;3.63;2.38;;;35.00;28.70;;;;;;4992294;28;20112;-49
2022/07/19 11:39:08;;;;;;;7.07;2.10;;;35.10;28.40;;;;;;4993801;28;20046;-48
2022/07/19 11:41:35;;;;;;;8.15;2.72;;;35.20;28.50;;;;;;5006298;28;20502;-50
2022/07/19 11:44:05;;;;;;;6.70;2.28;;;35.30;28.40;;;;;;5010720;28;20045;-46
2022/07/19 11:46:38;;;;;;;10.90;2.50;;;35.40;28.20;;;;;;4984182;28;20049;-49
2022/07/19 11:49:07;;;;;;;3.90;1.98;;;35.50;28.40;;;;;;4991381;28;20574;-47
2022/07/19 11:51:35;;;;;;;3.47;2.38;;;35.60;28.10;;;;;;4982478;28;20380;-51
2022/07/19 11:54:04;;;;;;;6.13;2.42;;;35.70;28.10;;;;;;4985270;28;20042;-49
2022/07/19 11:56:34;;;;;;;4.45;2.45;;;35.80;28.20;;;;;;4991939;28;20039;-51
2022/07/19 11:59:04;;;;;;;7.18;2.28;;;35.90;27.60;;;;;;4992435;28;20085;-48
2022/07/19 12:01:37;;;;;;;3.63;1.70;;;35.90;27.40;;;;;;5010059;28;20529;-48
2022/07/19 12:04:06;;;;;;;5.10;2.00;;;36.00;26.80;;;;;;5009786;28;20052;-48
2022/07/19 12:06:40;;;;;;;4.75;2.00;;;36.10;26.90;;;;;;4992022;28;20077;-52
2022/07/19 12:09:10;;;;;;;7.07;2.33;;;36.20;26.30;;;;;;5006867;28;20077;-50
2022/07/19 12:11:41;;;;;;;4.05;2.00;;;36.30;26.90;;;;;;4985758;28;20034;-51
2022/07/19 12:14:21;;;;;;;3.67;2.03;;;36.40;26.80;;;;;;5003387;28;20112;-50
2022/07/19 12:16:50;;;;;;;4.70;1.92;;;36.60;26.80;;;;;;4996749;28;20053;-51
2022/07/19 12:19:19;;;;;;;8.18;2.25;;;36.60;26.50;;;;;;4996552;28;20120;-51
2022/07/19 12:21:46;;;;;;;6.75;2.10;;;36.70;26.20;;;;;;4979550;28;20039;-50
2022/07/19 12:24:17;;;;;;;5.85;2.03;;;36.80;26.30;;;;;;4981900;28;20503;-51
2022/07/19 12:27:03;;;;;;;5.70;2.45;;;36.80;26.00;;;;;;4988423;28;20070;-51
2022/07/19 12:29:34;;;;;;;3.83;2.00;;;36.90;25.50;;;;;;4986515;28;20093;-52
2022/07/19 12:32:04;;;;;;;2.23;1.53;;;37.00;25.80;;;;;;4971340;28;20047;-49
2022/07/19 12:34:42;;;;;;;5.13;2.08;;;37.20;25.60;;;;;;4975444;28;20053;-50
2022/07/19 12:37:36;;;;;;;4.38;2.53;;;37.30;24.60;;;;;;5005185;28;20041;-50
2022/07/19 12:40:18;;;;;;;7.07;1.67;;;37.30;25.10;;;;;;5005271;28;20075;-46
2022/07/19 12:42:59;;;;;;;2.65;1.95;;;37.40;24.80;;;;;;5003286;28;20041;-52
2022/07/19 12:45:38;;;;;;;6.05;1.50;;;37.50;24.50;;;;;;4993339;28;20088;-47
2022/07/19 12:48:06;;;;;;;3.15;1.90;;;37.70;24.60;;;;;;4998781;28;20042;-52
2022/07/19 12:50:35;;;;;;;3.38;2.03;;;37.80;24.40;;;;;;5010015;28;20104;-49
2022/07/19 12:53:06;;;;;;;5.25;1.98;;;37.90;24.60;;;;;;4989726;28;20046;-50
2022/07/19 12:55:35;;;;;;;8.52;2.22;;;38.00;24.40;;;;;;4992426;28;20134;-48
2022/07/19 12:58:04;;;;;;;4.00;2.35;;;38.10;24.80;;;;;;4987530;28;20074;-51
2022/07/19 13:00:32;;;;;;;3.47;1.70;;;38.20;24.50;;;;;;4988947;28;20105;-50
2022/07/19 13:03:01;;;;;;;5.60;2.03;;;38.30;24.40;;;;;;4989047;28;20046;-52
2022/07/19 13:05:29;;;;;;;3.72;2.08;;;38.50;24.30;;;;;;4998626;28;20053;-49